sensor_id;sensor_type;location;lat;lon;timestamp;pressure;altitude;pressure_sealevel;temperature;humidity
56681;BME280;42558;52.388;13.390;2023-02-28T00:01:57;102688.48;;;-0.46;92.82
56681;BME280;42558;52.388;13.390;2023-02-28T00:04:27;102685.62;;;-0.40;92.98
56681;BME280;42558;52.388;13.390;2023-02-28T00:06:56;102684.33;;;-0.41;92.69
56681;BME280;42558;52.388;13.390;2023-02-28T00:09:26;102681.80;;;-0.40;92.75
56681;BME280;42558;52.388;13.390;2023-02-28T00:11:56;102684.89;;;-0.36;92.53
56681;BME280;42558;52.388;13.390;2023-02-28T00:14:26;102682.09;;;-0.35;92.33
56681;BME280;42558;52.388;13.390;2023-02-28T00:16:56;102681.29;;;-0.32;91.83
56681;BME280;42558;52.388;13.390;2023-02-28T00:19:26;102688.52;;;-0.33;92.22
56681;BME280;42558;52.388;13.390;2023-02-28T00:21:55;102686.84;;;-0.36;91.95
56681;BME280;42558;52.388;13.390;2023-02-28T00:24:24;102690.67;;;-0.39;92.43
56681;BME280;42558;52.388;13.390;2023-02-28T00:26:52;102689.25;;;-0.42;92.48
56681;BME280;42558;52.388;13.390;2023-02-28T00:29:21;102685.31;;;-0.33;92.35
56681;BME280;42558;52.388;13.390;2023-02-28T00:31:49;102681.91;;;-0.23;91.75
56681;BME280;42558;52.388;13.390;2023-02-28T00:34:18;102682.73;;;-0.23;91.53
56681;BME280;42558;52.388;13.390;2023-02-28T00:36:46;102687.36;;;-0.28;91.44
56681;BME280;42558;52.388;13.390;2023-02-28T00:39:17;102686.85;;;-0.30;91.86
56681;BME280;42558;52.388;13.390;2023-02-28T00:41:46;102685.61;;;-0.28;91.60
56681;BME280;42558;52.388;13.390;2023-02-28T00:44:14;102684.91;;;-0.28;91.54
56681;BME280;42558;52.388;13.390;2023-02-28T00:46:43;102686.98;;;-0.28;91.60
56681;BME280;42558;52.388;13.390;2023-02-28T00:49:11;102687.87;;;-0.32;91.69
56681;BME280;42558;52.388;13.390;2023-02-28T00:51:39;102691.84;;;-0.34;91.78
56681;BME280;42558;52.388;13.390;2023-02-28T00:54:08;102690.75;;;-0.34;92.03
56681;BME280;42558;52.388;13.390;2023-02-28T00:56:36;102690.85;;;-0.37;92.39
56681;BME280;42558;52.388;13.390;2023-02-28T00:59:05;102691.34;;;-0.38;92.47
56681;BME280;42558;52.388;13.390;2023-02-28T01:01:34;102690.88;;;-0.37;92.60
56681;BME280;42558;52.388;13.390;2023-02-28T01:04:04;102692.40;;;-0.37;92.71
56681;BME280;42558;52.388;13.390;2023-02-28T01:06:35;102693.06;;;-0.38;92.73
56681;BME280;42558;52.388;13.390;2023-02-28T01:09:06;102695.08;;;-0.38;92.38
56681;BME280;42558;52.388;13.390;2023-02-28T01:11:37;102695.59;;;-0.38;93.10
56681;BME280;42558;52.388;13.390;2023-02-28T01:14:08;102689.52;;;-0.37;92.67
56681;BME280;42558;52.388;13.390;2023-02-28T01:16:38;102688.73;;;-0.36;92.70
56681;BME280;42558;52.388;13.390;2023-02-28T01:19:08;102690.13;;;-0.38;92.48
56681;BME280;42558;52.388;13.390;2023-02-28T01:21:38;102689.21;;;-0.40;92.83
56681;BME280;42558;52.388;13.390;2023-02-28T01:24:08;102681.79;;;-0.40;92.98
56681;BME280;42558;52.388;13.390;2023-02-28T01:26:38;102681.89;;;-0.43;92.62
56681;BME280;42558;52.388;13.390;2023-02-28T01:29:08;102688.23;;;-0.45;93.02
56681;BME280;42558;52.388;13.390;2023-02-28T01:31:38;102685.98;;;-0.46;93.04
56681;BME280;42558;52.388;13.390;2023-02-28T01:34:08;102679.40;;;-0.46;93.14
56681;BME280;42558;52.388;13.390;2023-02-28T01:36:38;102678.05;;;-0.47;93.18
56681;BME280;42558;52.388;13.390;2023-02-28T01:39:08;102674.78;;;-0.49;93.32
56681;BME280;42558;52.388;13.390;2023-02-28T01:41:39;102668.98;;;-0.52;93.39
56681;BME280;42558;52.388;13.390;2023-02-28T01:47:32;102674.42;;;-0.63;94.08
56681;BME280;42558;52.388;13.390;2023-02-28T01:50:09;102671.60;;;-0.67;94.55
56681;BME280;42558;52.388;13.390;2023-02-28T01:52:41;102674.97;;;-0.72;94.73
56681;BME280;42558;52.388;13.390;2023-02-28T01:55:13;102677.13;;;-0.73;95.26
56681;BME280;42558;52.388;13.390;2023-02-28T01:57:52;102674.89;;;-0.73;95.12
56681;BME280;42558;52.388;13.390;2023-02-28T02:00:26;102676.96;;;-0.76;95.57
56681;BME280;42558;52.388;13.390;2023-02-28T02:03:08;102673.88;;;-0.82;95.74
56681;BME280;42558;52.388;13.390;2023-02-28T02:05:41;102675.61;;;-0.82;96.21
56681;BME280;42558;52.388;13.390;2023-02-28T02:08:19;102673.59;;;-0.84;96.30
56681;BME280;42558;52.388;13.390;2023-02-28T02:10:56;102671.55;;;-0.89;96.52
56681;BME280;42558;52.388;13.390;2023-02-28T02:25:36;102674.64;;;-1.14;97.36
56681;BME280;42558;52.388;13.390;2023-02-28T02:43:52;102667.48;;;-1.56;98.80
56681;BME280;42558;52.388;13.390;2023-02-28T02:46:30;102666.59;;;-1.62;98.94
56681;BME280;42558;52.388;13.390;2023-02-28T02:49:07;102668.23;;;-1.68;99.29
56681;BME280;42558;52.388;13.390;2023-02-28T02:51:41;102670.50;;;-1.77;99.35
56681;BME280;42558;52.388;13.390;2023-02-28T02:54:17;102672.23;;;-1.88;99.45
56681;BME280;42558;52.388;13.390;2023-02-28T02:56:51;102672.96;;;-1.95;99.90
56681;BME280;42558;52.388;13.390;2023-02-28T02:59:22;102673.19;;;-2.05;99.98
56681;BME280;42558;52.388;13.390;2023-02-28T03:01:59;102676.15;;;-2.12;100.00
56681;BME280;42558;52.388;13.390;2023-02-28T03:04:42;102674.21;;;-2.20;100.00
56681;BME280;42558;52.388;13.390;2023-02-28T03:07:13;102678.98;;;-2.24;100.00
56681;BME280;42558;52.388;13.390;2023-02-28T03:09:52;102677.88;;;-2.28;100.00
56681;BME280;42558;52.388;13.390;2023-02-28T03:12:38;102675.74;;;-2.32;100.00
56681;BME280;42558;52.388;13.390;2023-02-28T03:15:27;102680.20;;;-2.36;100.00
56681;BME280;42558;52.388;13.390;2023-02-28T03:18:10;102681.63;;;-2.41;100.00
56681;BME280;42558;52.388;13.390;2023-02-28T03:21:21;102684.77;;;-2.46;100.00
56681;BME280;42558;52.388;13.390;2023-02-28T03:24:04;102688.37;;;-2.52;100.00
56681;BME280;42558;52.388;13.390;2023-02-28T03:26:42;102690.70;;;-2.55;100.00
56681;BME280;42558;52.388;13.390;2023-02-28T03:29:29;102691.21;;;-2.58;100.00
56681;BME280;42558;52.388;13.390;2023-02-28T03:32:17;102691.52;;;-2.60;100.00
56681;BME280;42558;52.388;13.390;2023-02-28T03:35:01;102692.73;;;-2.60;100.00
56681;BME280;42558;52.388;13.390;2023-02-28T03:37:40;102695.66;;;-2.65;100.00
56681;BME280;42558;52.388;13.390;2023-02-28T03:40:17;102699.45;;;-2.68;100.00
56681;BME280;42558;52.388;13.390;2023-02-28T03:42:58;102702.84;;;-2.71;100.00
56681;BME280;42558;52.388;13.390;2023-02-28T03:45:34;102698.05;;;-2.74;100.00
56681;BME280;42558;52.388;13.390;2023-02-28T03:48:23;102700.50;;;-2.77;100.00
56681;BME280;42558;52.388;13.390;2023-02-28T03:50:58;102698.57;;;-2.83;100.00
56681;BME280;42558;52.388;13.390;2023-02-28T03:53:36;102697.54;;;-2.88;100.00
56681;BME280;42558;52.388;13.390;2023-02-28T03:56:22;102697.36;;;-2.88;100.00
56681;BME280;42558;52.388;13.390;2023-02-28T03:59:04;102694.27;;;-2.91;100.00
56681;BME280;42558;52.388;13.390;2023-02-28T04:01:41;102696.48;;;-2.98;100.00
56681;BME280;42558;52.388;13.390;2023-02-28T04:04:13;102695.87;;;-3.03;100.00
56681;BME280;42558;52.388;13.390;2023-02-28T04:06:44;102699.73;;;-3.09;100.00
56681;BME280;42558;52.388;13.390;2023-02-28T04:09:14;102698.42;;;-3.11;100.00
56681;BME280;42558;52.388;13.390;2023-02-28T04:11:50;102697.65;;;-3.13;100.00
56681;BME280;42558;52.388;13.390;2023-02-28T04:14:19;102694.84;;;-3.17;100.00
56681;BME280;42558;52.388;13.390;2023-02-28T04:16:46;102698.25;;;-3.19;100.00
56681;BME280;42558;52.388;13.390;2023-02-28T04:19:14;102702.13;;;-3.20;100.00
56681;BME280;42558;52.388;13.390;2023-02-28T04:21:53;102700.15;;;-3.24;100.00
56681;BME280;42558;52.388;13.390;2023-02-28T04:24:26;102700.91;;;-3.29;100.00
56681;BME280;42558;52.388;13.390;2023-02-28T04:26:58;102700.36;;;-3.32;100.00
56681;BME280;42558;52.388;13.390;2023-02-28T04:29:30;102704.13;;;-3.34;100.00
56681;BME280;42558;52.388;13.390;2023-02-28T04:32:05;102701.72;;;-3.37;100.00
56681;BME280;42558;52.388;13.390;2023-02-28T04:34:32;102706.23;;;-3.44;100.00
56681;BME280;42558;52.388;13.390;2023-02-28T04:37:00;102708.23;;;-3.49;100.00
56681;BME280;42558;52.388;13.390;2023-02-28T04:39:43;102710.04;;;-3.54;100.00
56681;BME280;42558;52.388;13.390;2023-02-28T04:42:17;102714.68;;;-3.56;100.00
56681;BME280;42558;52.388;13.390;2023-02-28T04:44:47;102716.37;;;-3.54;100.00
56681;BME280;42558;52.388;13.390;2023-02-28T04:47:16;102716.00;;;-3.56;100.00
56681;BME280;42558;52.388;13.390;2023-02-28T04:49:46;102717.36;;;-3.60;100.00
56681;BME280;42558;52.388;13.390;2023-02-28T04:52:16;102720.67;;;-3.63;100.00
56681;BME280;42558;52.388;13.390;2023-02-28T04:54:46;102722.68;;;-3.67;100.00
56681;BME280;42558;52.388;13.390;2023-02-28T04:57:16;102724.30;;;-3.69;100.00
56681;BME280;42558;52.388;13.390;2023-02-28T04:59:45;102727.06;;;-3.71;100.00
56681;BME280;42558;52.388;13.390;2023-02-28T05:02:15;102728.54;;;-3.73;100.00
56681;BME280;42558;52.388;13.390;2023-02-28T05:04:45;102726.80;;;-3.77;100.00
56681;BME280;42558;52.388;13.390;2023-02-28T05:07:15;102728.83;;;-3.79;100.00
56681;BME280;42558;52.388;13.390;2023-02-28T05:09:42;102728.63;;;-3.79;100.00
56681;BME280;42558;52.388;13.390;2023-02-28T05:12:10;102725.81;;;-3.83;100.00
56681;BME280;42558;52.388;13.390;2023-02-28T05:14:41;102729.38;;;-3.87;100.00
56681;BME280;42558;52.388;13.390;2023-02-28T05:17:11;102733.36;;;-3.86;100.00
56681;BME280;42558;52.388;13.390;2023-02-28T05:19:40;102733.20;;;-3.89;100.00
56681;BME280;42558;52.388;13.390;2023-02-28T05:22:15;102736.23;;;-3.93;100.00
56681;BME280;42558;52.388;13.390;2023-02-28T05:24:45;102737.16;;;-3.96;100.00
56681;BME280;42558;52.388;13.390;2023-02-28T05:27:13;102736.61;;;-3.98;100.00
56681;BME280;42558;52.388;13.390;2023-02-28T05:29:42;102737.01;;;-3.99;100.00
56681;BME280;42558;52.388;13.390;2023-02-28T05:32:14;102735.76;;;-4.03;100.00
56681;BME280;42558;52.388;13.390;2023-02-28T05:34:44;102735.27;;;-4.06;100.00
56681;BME280;42558;52.388;13.390;2023-02-28T05:37:14;102735.39;;;-4.12;100.00
56681;BME280;42558;52.388;13.390;2023-02-28T05:39:44;102739.36;;;-4.12;100.00
56681;BME280;42558;52.388;13.390;2023-02-28T05:42:16;102736.75;;;-4.10;100.00
56681;BME280;42558;52.388;13.390;2023-02-28T05:44:43;102739.88;;;-4.15;100.00
56681;BME280;42558;52.388;13.390;2023-02-28T05:47:12;102738.09;;;-4.15;100.00
56681;BME280;42558;52.388;13.390;2023-02-28T05:49:44;102739.79;;;-4.16;100.00
56681;BME280;42558;52.388;13.390;2023-02-28T05:52:11;102740.80;;;-4.17;100.00
56681;BME280;42558;52.388;13.390;2023-02-28T05:54:41;102744.98;;;-4.14;100.00
56681;BME280;42558;52.388;13.390;2023-02-28T05:57:11;102745.09;;;-4.13;100.00
56681;BME280;42558;52.388;13.390;2023-02-28T05:59:53;102748.52;;;-4.16;100.00
56681;BME280;42558;52.388;13.390;2023-02-28T06:02:21;102750.78;;;-4.17;100.00
56681;BME280;42558;52.388;13.390;2023-02-28T06:04:50;102751.78;;;-4.18;100.00
56681;BME280;42558;52.388;13.390;2023-02-28T06:07:17;102754.23;;;-4.21;100.00
56681;BME280;42558;52.388;13.390;2023-02-28T06:09:45;102755.38;;;-4.24;100.00
56681;BME280;42558;52.388;13.390;2023-02-28T06:12:17;102754.96;;;-4.25;100.00
56681;BME280;42558;52.388;13.390;2023-02-28T06:14:45;102755.55;;;-4.23;100.00
56681;BME280;42558;52.388;13.390;2023-02-28T06:17:14;102757.02;;;-4.26;100.00
56681;BME280;42558;52.388;13.390;2023-02-28T06:19:42;102753.66;;;-4.23;100.00
56681;BME280;42558;52.388;13.390;2023-02-28T06:22:11;102757.01;;;-4.22;100.00
56681;BME280;42558;52.388;13.390;2023-02-28T06:24:39;102759.36;;;-4.19;100.00
56681;BME280;42558;52.388;13.390;2023-02-28T06:27:08;102764.20;;;-4.19;100.00
56681;BME280;42558;52.388;13.390;2023-02-28T06:29:37;102766.48;;;-4.17;100.00
56681;BME280;42558;52.388;13.390;2023-02-28T06:32:09;102768.31;;;-4.12;100.00
56681;BME280;42558;52.388;13.390;2023-02-28T06:34:39;102771.94;;;-4.12;100.00
56681;BME280;42558;52.388;13.390;2023-02-28T06:37:05;102770.99;;;-4.13;100.00
56681;BME280;42558;52.388;13.390;2023-02-28T06:39:34;102777.69;;;-4.08;100.00
56681;BME280;42558;52.388;13.390;2023-02-28T06:42:03;102778.59;;;-4.05;100.00
56681;BME280;42558;52.388;13.390;2023-02-28T06:44:36;102783.35;;;-4.03;100.00
56681;BME280;42558;52.388;13.390;2023-02-28T06:47:05;102785.73;;;-4.00;100.00
56681;BME280;42558;52.388;13.390;2023-02-28T06:49:36;102784.67;;;-3.94;100.00
56681;BME280;42558;52.388;13.390;2023-02-28T06:52:05;102787.50;;;-3.88;100.00
56681;BME280;42558;52.388;13.390;2023-02-28T06:54:36;102789.45;;;-3.84;100.00
56681;BME280;42558;52.388;13.390;2023-02-28T06:57:06;102788.77;;;-3.82;100.00
56681;BME280;42558;52.388;13.390;2023-02-28T06:59:36;102793.17;;;-3.78;100.00
56681;BME280;42558;52.388;13.390;2023-02-28T07:02:07;102791.55;;;-3.74;100.00
56681;BME280;42558;52.388;13.390;2023-02-28T07:04:37;102792.14;;;-3.65;100.00
56681;BME280;42558;52.388;13.390;2023-02-28T07:07:09;102794.49;;;-3.57;100.00
56681;BME280;42558;52.388;13.390;2023-02-28T07:09:38;102796.89;;;-3.48;100.00
56681;BME280;42558;52.388;13.390;2023-02-28T07:12:11;102795.73;;;-3.43;100.00
56681;BME280;42558;52.388;13.390;2023-02-28T07:14:40;102797.70;;;-3.34;100.00
56681;BME280;42558;52.388;13.390;2023-02-28T07:17:11;102796.73;;;-3.23;100.00
56681;BME280;42558;52.388;13.390;2023-02-28T07:19:40;102797.81;;;-2.96;100.00
56681;BME280;42558;52.388;13.390;2023-02-28T07:22:09;102793.14;;;-1.48;100.00
56681;BME280;42558;52.388;13.390;2023-02-28T07:24:37;102787.01;;;0.92;100.00
56681;BME280;42558;52.388;13.390;2023-02-28T07:27:06;102783.95;;;2.35;100.00
56681;BME280;42558;52.388;13.390;2023-02-28T07:29:34;102782.23;;;3.66;90.15
56681;BME280;42558;52.388;13.390;2023-02-28T07:32:03;102776.98;;;4.18;75.83
56681;BME280;42558;52.388;13.390;2023-02-28T07:34:31;102771.66;;;4.73;70.78
56681;BME280;42558;52.388;13.390;2023-02-28T07:36:59;102770.92;;;5.15;65.98
56681;BME280;42558;52.388;13.390;2023-02-28T07:39:31;102770.34;;;5.28;64.08
56681;BME280;42558;52.388;13.390;2023-02-28T07:41:59;102772.40;;;5.42;62.91
56681;BME280;42558;52.388;13.390;2023-02-28T07:44:28;102770.48;;;5.66;62.16
56681;BME280;42558;52.388;13.390;2023-02-28T07:46:56;102771.15;;;5.73;61.32
56681;BME280;42558;52.388;13.390;2023-02-28T07:49:24;102770.64;;;5.74;60.60
56681;BME280;42558;52.388;13.390;2023-02-28T07:51:53;102766.27;;;6.08;59.76
56681;BME280;42558;52.388;13.390;2023-02-28T07:54:21;102765.39;;;6.02;58.66
56681;BME280;42558;52.388;13.390;2023-02-28T07:56:50;102764.02;;;5.98;58.21
56681;BME280;42558;52.388;13.390;2023-02-28T07:59:18;102768.94;;;5.88;56.55
56681;BME280;42558;52.388;13.390;2023-02-28T08:01:47;102768.72;;;5.74;54.04
56681;BME280;42558;52.388;13.390;2023-02-28T08:04:19;102771.93;;;4.65;53.87
56681;BME280;42558;52.388;13.390;2023-02-28T08:06:49;102772.98;;;4.50;56.99
56681;BME280;42558;52.388;13.390;2023-02-28T08:09:21;102769.48;;;4.84;54.00
56681;BME280;42558;52.388;13.390;2023-02-28T08:11:51;102772.45;;;5.17;58.55
56681;BME280;42558;52.388;13.390;2023-02-28T08:14:22;102774.45;;;4.51;53.98
56681;BME280;42558;52.388;13.390;2023-02-28T08:16:52;102781.64;;;3.60;57.17
56681;BME280;42558;52.388;13.390;2023-02-28T08:19:21;102777.85;;;3.30;55.23
56681;BME280;42558;52.388;13.390;2023-02-28T08:21:51;102785.39;;;3.15;55.54
56681;BME280;42558;52.388;13.390;2023-02-28T08:24:22;102783.98;;;3.61;55.44
56681;BME280;42558;52.388;13.390;2023-02-28T08:26:52;102783.73;;;3.74;55.95
56681;BME280;42558;52.388;13.390;2023-02-28T08:29:22;102781.00;;;4.03;56.26
56681;BME280;42558;52.388;13.390;2023-02-28T08:31:52;102786.24;;;3.56;58.08
56681;BME280;42558;52.388;13.390;2023-02-28T08:34:22;102783.19;;;4.14;57.68
56681;BME280;42558;52.388;13.390;2023-02-28T08:36:52;102786.08;;;4.11;57.60
56681;BME280;42558;52.388;13.390;2023-02-28T08:39:22;102787.78;;;4.20;59.02
56681;BME280;42558;52.388;13.390;2023-02-28T08:41:52;102785.01;;;5.20;58.54
56681;BME280;42558;52.388;13.390;2023-02-28T08:44:35;102776.30;;;6.40;54.24
56681;BME280;42558;52.388;13.390;2023-02-28T08:47:05;102781.08;;;5.89;50.87
56681;BME280;42558;52.388;13.390;2023-02-28T08:49:37;102783.23;;;4.66;53.32
56681;BME280;42558;52.388;13.390;2023-02-28T08:52:07;102785.50;;;4.35;52.68
56681;BME280;42558;52.388;13.390;2023-02-28T08:54:37;102785.55;;;4.33;54.04
56681;BME280;42558;52.388;13.390;2023-02-28T08:57:07;102782.21;;;4.67;54.43
56681;BME280;42558;52.388;13.390;2023-02-28T08:59:36;102780.83;;;5.15;52.69
56681;BME280;42558;52.388;13.390;2023-02-28T09:02:12;102780.19;;;5.10;51.52
56681;BME280;42558;52.388;13.390;2023-02-28T09:04:42;102776.08;;;5.77;51.03
56681;BME280;42558;52.388;13.390;2023-02-28T09:07:12;102778.34;;;5.58;50.89
56681;BME280;42558;52.388;13.390;2023-02-28T09:09:42;102779.17;;;5.52;50.06
56681;BME280;42558;52.388;13.390;2023-02-28T09:12:25;102777.23;;;4.85;49.43
56681;BME280;42558;52.388;13.390;2023-02-28T09:14:55;102781.95;;;4.02;50.96
56681;BME280;42558;52.388;13.390;2023-02-28T09:17:23;102779.83;;;4.25;51.75
56681;BME280;42558;52.388;13.390;2023-02-28T09:19:59;102774.02;;;5.80;50.35
56681;BME280;42558;52.388;13.390;2023-02-28T09:22:29;102774.71;;;5.80;48.98
56681;BME280;42558;52.388;13.390;2023-02-28T09:24:59;102769.67;;;6.37;48.22
56681;BME280;42558;52.388;13.390;2023-02-28T09:27:29;102769.08;;;5.48;46.48
56681;BME280;42558;52.388;13.390;2023-02-28T09:29:59;102771.45;;;6.07;47.05
56681;BME280;42558;52.388;13.390;2023-02-28T09:32:28;102778.57;;;5.30;45.81
56681;BME280;42558;52.388;13.390;2023-02-28T09:34:58;102778.28;;;5.68;47.07
56681;BME280;42558;52.388;13.390;2023-02-28T09:37:28;102775.70;;;5.35;46.60
56681;BME280;42558;52.388;13.390;2023-02-28T09:40:00;102777.01;;;4.77;48.98
56681;BME280;42558;52.388;13.390;2023-02-28T09:42:33;102776.20;;;4.21;49.78
56681;BME280;42558;52.388;13.390;2023-02-28T09:45:16;102782.79;;;4.31;49.53
56681;BME280;42558;52.388;13.390;2023-02-28T09:47:52;102778.26;;;4.16;48.93
56681;BME280;42558;52.388;13.390;2023-02-28T09:52:57;102775.58;;;5.12;50.24
56681;BME280;42558;52.388;13.390;2023-02-28T09:55:58;102779.29;;;3.90;50.41
56681;BME280;42558;52.388;13.390;2023-02-28T09:58:35;102785.91;;;3.89;50.14
56681;BME280;42558;52.388;13.390;2023-02-28T10:01:24;102783.23;;;4.12;49.46
56681;BME280;42558;52.388;13.390;2023-02-28T10:04:36;102784.19;;;3.85;49.52
56681;BME280;42558;52.388;13.390;2023-02-28T10:09:55;102777.70;;;4.82;46.09
56681;BME280;42558;52.388;13.390;2023-02-28T10:12:29;102772.77;;;4.87;47.47
56681;BME280;42558;52.388;13.390;2023-02-28T10:14:59;102774.27;;;5.13;45.71
56681;BME280;42558;52.388;13.390;2023-02-28T10:17:42;102772.42;;;5.12;46.98
56681;BME280;42558;52.388;13.390;2023-02-28T10:20:34;102768.34;;;5.71;46.10
56681;BME280;42558;52.388;13.390;2023-02-28T10:26:11;102768.09;;;4.52;46.32
56681;BME280;42558;52.388;13.390;2023-02-28T10:28:43;102771.91;;;4.49;47.14
56681;BME280;42558;52.388;13.390;2023-02-28T10:31:20;102774.09;;;4.28;47.21
56681;BME280;42558;52.388;13.390;2023-02-28T10:33:49;102768.05;;;5.48;46.12
56681;BME280;42558;52.388;13.390;2023-02-28T10:36:20;102768.02;;;5.63;45.66
56681;BME280;42558;52.388;13.390;2023-02-28T10:38:49;102773.58;;;4.93;45.13
56681;BME280;42558;52.388;13.390;2023-02-28T10:41:31;102776.33;;;4.01;46.66
56681;BME280;42558;52.388;13.390;2023-02-28T10:44:21;102765.96;;;5.88;44.50
56681;BME280;42558;52.388;13.390;2023-02-28T10:46:51;102760.05;;;6.91;45.44
56681;BME280;42558;52.388;13.390;2023-02-28T10:49:25;102754.89;;;6.36;42.53
56681;BME280;42558;52.388;13.390;2023-02-28T10:51:59;102755.48;;;5.64;44.13
56681;BME280;42558;52.388;13.390;2023-02-28T10:54:33;102755.39;;;5.28;44.40
56681;BME280;42558;52.388;13.390;2023-02-28T10:59:52;102750.61;;;6.20;43.82
56681;BME280;42558;52.388;13.390;2023-02-28T11:02:36;102744.38;;;6.54;43.73
56681;BME280;42558;52.388;13.390;2023-02-28T11:05:28;102743.71;;;6.38;43.35
56681;BME280;42558;52.388;13.390;2023-02-28T11:08:15;102745.61;;;6.29;44.27
56681;BME280;42558;52.388;13.390;2023-02-28T11:10:59;102741.87;;;6.39;43.04
56681;BME280;42558;52.388;13.390;2023-02-28T11:13:36;102733.66;;;6.34;43.22
56681;BME280;42558;52.388;13.390;2023-02-28T11:16:11;102729.85;;;6.42;43.59
56681;BME280;42558;52.388;13.390;2023-02-28T11:21:36;102728.23;;;6.14;42.18
56681;BME280;42558;52.388;13.390;2023-02-28T11:26:52;102723.34;;;5.63;45.76
56681;BME280;42558;52.388;13.390;2023-02-28T11:29:32;102722.15;;;5.47;44.78
56681;BME280;42558;52.388;13.390;2023-02-28T11:32:18;102716.07;;;5.80;44.47
56681;BME280;42558;52.388;13.390;2023-02-28T11:35:36;102713.23;;;5.55;45.78
56681;BME280;42558;52.388;13.390;2023-02-28T11:38:12;102707.10;;;5.73;44.63
56681;BME280;42558;52.388;13.390;2023-02-28T11:50:53;102714.17;;;4.91;46.06
56681;BME280;42558;52.388;13.390;2023-02-28T11:56:46;102719.72;;;4.45;47.00
56681;BME280;42558;52.388;13.390;2023-02-28T12:05:13;102710.47;;;4.80;46.52
56681;BME280;42558;52.388;13.390;2023-02-28T12:08:11;102709.69;;;5.17;46.58
56681;BME280;42558;52.388;13.390;2023-02-28T12:11:32;102710.08;;;5.15;46.11
56681;BME280;42558;52.388;13.390;2023-02-28T12:14:36;102707.70;;;4.88;46.72
56681;BME280;42558;52.388;13.390;2023-02-28T12:26:01;102705.27;;;4.68;46.88
56681;BME280;42558;52.388;13.390;2023-02-28T12:28:40;102696.70;;;4.09;47.13
56681;BME280;42558;52.388;13.390;2023-02-28T12:31:26;102700.90;;;4.28;48.21
56681;BME280;42558;52.388;13.390;2023-02-28T12:34:06;102698.46;;;4.37;47.24
56681;BME280;42558;52.388;13.390;2023-02-28T12:36:39;102693.82;;;4.33;48.36
56681;BME280;42558;52.388;13.390;2023-02-28T12:39:32;102687.95;;;4.36;47.59
56681;BME280;42558;52.388;13.390;2023-02-28T12:42:33;102682.14;;;4.33;47.72
56681;BME280;42558;52.388;13.390;2023-02-28T12:45:20;102672.54;;;4.27;47.47
56681;BME280;42558;52.388;13.390;2023-02-28T12:48:00;102668.32;;;4.07;47.33
56681;BME280;42558;52.388;13.390;2023-02-28T12:50:33;102668.16;;;4.27;47.62
56681;BME280;42558;52.388;13.390;2023-02-28T12:53:19;102662.77;;;4.57;47.43
56681;BME280;42558;52.388;13.390;2023-02-28T12:56:12;102660.45;;;4.75;48.31
56681;BME280;42558;52.388;13.390;2023-02-28T12:59:22;102651.83;;;4.73;46.08
56681;BME280;42558;52.388;13.390;2023-02-28T13:10:48;102632.26;;;4.34;47.53
56681;BME280;42558;52.388;13.390;2023-02-28T13:13:26;102627.29;;;4.28;47.15
56681;BME280;42558;52.388;13.390;2023-02-28T13:16:09;102623.34;;;4.33;47.34
56681;BME280;42558;52.388;13.390;2023-02-28T13:18:45;102628.62;;;4.37;47.26
56681;BME280;42558;52.388;13.390;2023-02-28T13:21:29;102627.45;;;4.40;48.01
56681;BME280;42558;52.388;13.390;2023-02-28T13:24:05;102629.93;;;4.31;48.15
56681;BME280;42558;52.388;13.390;2023-02-28T13:34:39;102620.56;;;4.88;48.77
56681;BME280;42558;52.388;13.390;2023-02-28T13:39:59;102625.41;;;4.90;46.85
56681;BME280;42558;52.388;13.390;2023-02-28T13:42:48;102625.50;;;4.68;47.18
56681;BME280;42558;52.388;13.390;2023-02-28T13:45:28;102624.72;;;4.33;47.38
56681;BME280;42558;52.388;13.390;2023-02-28T13:48:28;102624.27;;;4.39;47.87
56681;BME280;42558;52.388;13.390;2023-02-28T13:51:38;102620.74;;;4.51;46.68
56681;BME280;42558;52.388;13.390;2023-02-28T13:54:07;102615.30;;;4.61;46.96
56681;BME280;42558;52.388;13.390;2023-02-28T13:59:51;102616.40;;;5.07;48.18
56681;BME280;42558;52.388;13.390;2023-02-28T14:03:03;102601.59;;;5.22;47.08
56681;BME280;42558;52.388;13.390;2023-02-28T14:05:38;102594.70;;;6.16;45.01
56681;BME280;42558;52.388;13.390;2023-02-28T14:08:20;102588.70;;;7.77;41.85
56681;BME280;42558;52.388;13.390;2023-02-28T14:11:22;102588.15;;;6.55;41.97
56681;BME280;42558;52.388;13.390;2023-02-28T14:13:51;102590.39;;;5.60;45.78
56681;BME280;42558;52.388;13.390;2023-02-28T14:16:44;102596.91;;;5.10;45.96
56681;BME280;42558;52.388;13.390;2023-02-28T14:19:31;102591.55;;;5.79;46.05
56681;BME280;42558;52.388;13.390;2023-02-28T14:28:12;102587.98;;;8.39;41.13
56681;BME280;42558;52.388;13.390;2023-02-28T14:36:50;102579.69;;;7.76;39.29
56681;BME280;42558;52.388;13.390;2023-02-28T14:39:27;102581.65;;;8.06;40.37
56681;BME280;42558;52.388;13.390;2023-02-28T14:42:00;102570.52;;;9.10;37.41
56681;BME280;42558;52.388;13.390;2023-02-28T14:44:36;102566.35;;;9.67;36.20
56681;BME280;42558;52.388;13.390;2023-02-28T14:47:03;102568.77;;;8.75;36.95
56681;BME280;42558;52.388;13.390;2023-02-28T14:49:43;102565.92;;;9.58;36.10
56681;BME280;42558;52.388;13.390;2023-02-28T14:52:23;102563.55;;;10.33;35.51
56681;BME280;42558;52.388;13.390;2023-02-28T14:54:57;102560.48;;;9.58;35.00
56681;BME280;42558;52.388;13.390;2023-02-28T14:57:42;102571.64;;;7.67;38.16
56681;BME280;42558;52.388;13.390;2023-02-28T15:00:26;102575.52;;;6.21;41.13
56681;BME280;42558;52.388;13.390;2023-02-28T15:02:59;102572.98;;;7.31;42.27
56681;BME280;42558;52.388;13.390;2023-02-28T15:05:34;102571.31;;;7.51;40.37
56681;BME280;42558;52.388;13.390;2023-02-28T15:08:16;102573.30;;;7.62;39.82
56681;BME280;42558;52.388;13.390;2023-02-28T15:11:01;102571.08;;;7.10;39.87